< < Back
Terminal Aerodrome Forecast


Current Version              Previous Versions:   1  2  3  4  5  6  7  8  9  

Terminal Aerodrome Forecast

745
FTUS42 KFFC 280531
TAFCSG
TAF
KCSG 280531Z 2806/2906 09005KT P6SM SCT250
     FM281700 09006KT P6SM FEW050
     FM290000 09004KT P6SM SCT250=



Latest METAR

889
SAUS70 KWBC 281800
MTRCSG
METAR KCSG 281751Z VRB03KT 10SM FEW050 SCT070 29/16 A3008 RMK AO2 SLP181
T02940156 10294 20211 58017


USA.gov is the U.S. government's official web portal to all federal, state and local government web resources and services.